In Rescue
 
Open Full Screen Window  High Contrast Mode
Wind Gusting 00 knots
03
November 14, 2019 1:55 PM EST
Weather Information
Wind Direction
  230 °
Wind Speed
  03 kt (3 mph)
Wind Gust
  00 kt (0 mph)
Altimeter
30.19 in
Visibility
10 SM
Temperature
02° C
36° F
Dewpoint
-05° C
23° F
Humidity
60%
Sky Condition
Overcast @ 4,600 ft
VFR

METAR KDUH 141855Z AUTO 23003KT 10SM OVC046 02/M05 A3019 RMK AO2 T00171052

FAA Disclaimer: The data displayed is for advisory purposes only and is not to be used for flight planning or operations.